Time;durP1;ratioP1;P1;durP2;ratioP2;P2;SDS_P1;SDS_P2;PMS_P1;PMS_P2;Temp;Humidity;BMP_temperature;BMP_pressure;BME280_temperature;BME280_humidity;BME280_pressure;Samples;Min_cycle;Max_cycle;Signal;HPM_P1;HPM_P2
2022/03/20 00:00:43;;;;;;;;;5.00;2.50;;;;;15.24;26.80;102364.00;5066093;28;62193;-85
2022/03/20 00:03:11;;;;;;;;;3.00;3.00;;;;;15.24;26.98;102367.53;5065242;28;62661;-85
2022/03/20 00:05:40;;;;;;;;;2.00;2.00;;;;;15.21;27.12;102364.75;5065713;28;62293;-85
2022/03/20 00:08:11;;;;;;;;;4.50;3.00;;;;;15.18;26.93;102363.69;5066041;28;61935;-85
2022/03/20 00:10:44;;;;;;;;;3.00;2.75;;;;;15.12;26.76;102361.63;5065777;28;61773;-85
2022/03/20 00:13:11;;;;;;;;;1.25;1.00;;;;;15.08;26.63;102357.00;5064031;28;64546;-85
2022/03/20 00:15:40;;;;;;;;;1.75;1.75;;;;;15.05;27.07;102351.56;5065684;28;62034;-85
2022/03/20 00:18:07;;;;;;;;;3.75;3.75;;;;;15.12;27.75;102362.56;5083955;28;61814;-85
2022/03/20 00:20:35;;;;;;;;;6.50;4.25;;;;;15.08;27.92;102363.22;5065529;28;62393;-85
2022/03/20 00:23:04;;;;;;;;;3.75;3.00;;;;;15.06;28.06;102356.00;5065053;28;63985;-85
2022/03/20 00:25:31;;;;;;;;;4.00;4.00;;;;;15.05;28.02;102355.09;5083847;28;61814;-83
2022/03/20 00:27:56;;;;;;;;;3.50;2.50;;;;;15.04;28.28;102361.25;5082489;28;61725;-85
2022/03/20 00:30:22;;;;;;;;;4.75;2.00;;;;;15.00;27.81;102361.91;5083614;28;61797;-84
2022/03/20 00:32:47;;;;;;;;;4.50;3.25;;;;;14.96;28.48;102362.59;5083315;28;62646;-85
2022/03/20 00:35:13;;;;;;;;;5.50;2.75;;;;;14.95;28.36;102354.56;5065444;28;61745;-85
2022/03/20 00:37:38;;;;;;;;;7.75;7.75;;;;;14.92;28.20;102363.25;5065417;28;62200;-85
2022/03/20 00:40:04;;;;;;;;;7.00;7.00;;;;;14.90;28.69;102359.63;5064651;28;61873;-85
2022/03/20 00:42:30;;;;;;;;;5.25;5.25;;;;;14.89;28.91;102355.16;5081536;28;62055;-85
2022/03/20 00:44:55;;;;;;;;;2.50;2.50;;;;;14.85;28.88;102356.72;5065300;28;61905;-85
2022/03/20 00:47:21;;;;;;;;;2.75;2.00;;;;;14.83;29.15;102353.09;5083598;28;61867;-85
2022/03/20 00:49:46;;;;;;;;;4.75;4.75;;;;;14.81;28.94;102348.56;5065200;28;61743;-85
2022/03/20 00:52:12;;;;;;;;;1.50;1.50;;;;;14.72;28.42;102349.91;5082518;28;62172;-85
2022/03/20 00:54:37;;;;;;;;;1.00;1.00;;;;;14.67;28.95;102348.72;5065083;28;62196;-85
2022/03/20 00:57:04;;;;;;;;;2.00;1.00;;;;;14.67;28.71;102347.81;5064469;28;61897;-85
2022/03/20 00:59:29;;;;;;;;;1.00;1.00;;;;;14.59;28.24;102343.88;5064782;28;62184;-84
2022/03/20 01:01:55;;;;;;;;;1.75;1.75;;;;;14.55;28.51;102345.47;5082358;28;62858;-85
2022/03/20 01:04:20;;;;;;;;;1.00;1.00;;;;;14.53;28.41;102347.97;5065027;28;62227;-85
2022/03/20 01:06:46;;;;;;;;;6.25;2.00;;;;;14.49;28.98;102346.00;5083237;28;61938;-86
2022/03/20 01:09:11;;;;;;;;;1.00;1.00;;;;;14.48;28.81;102343.25;5065342;28;61986;-85
2022/03/20 01:11:38;;;;;;;;;4.50;2.75;;;;;14.49;28.88;102345.09;5063506;28;63030;-85
2022/03/20 01:14:04;;;;;;;;;1.25;1.00;;;;;14.47;28.76;102336.19;5082711;28;61984;-85
2022/03/20 01:16:30;;;;;;;;;1.50;1.50;;;;;14.44;29.33;102336.94;5065081;28;61789;-85
2022/03/20 01:19:00;;;;;;;;;6.25;3.25;;;;;14.41;28.97;102330.56;5064837;28;61766;-85
2022/03/20 01:21:30;;;;;;;;;2.00;2.00;;;;;14.40;29.25;102334.94;5082294;28;62023;-85
2022/03/20 01:23:57;;;;;;;;;4.00;3.00;;;;;14.36;29.16;102326.78;5083169;28;62116;-85
2022/03/20 01:26:23;;;;;;;;;1.00;1.00;;;;;14.31;29.41;102326.53;5082180;28;61839;-85
2022/03/20 01:28:49;;;;;;;;;3.00;3.00;;;;;14.26;29.23;102333.28;5064379;28;62153;-85
2022/03/20 01:31:14;;;;;;;;;2.00;2.00;;;;;14.19;29.11;102332.03;5082373;28;61922;-85
2022/03/20 01:33:41;;;;;;;;;5.00;3.00;;;;;14.18;29.48;102330.25;5082777;27;61866;-85
2022/03/20 01:36:07;;;;;;;;;1.75;1.75;;;;;14.15;29.20;102326.50;5064373;28;61876;-85
2022/03/20 01:38:34;;;;;;;;;1.50;1.50;;;;;14.10;29.67;102319.25;5083118;28;61964;-85
2022/03/20 01:41:02;;;;;;;;;1.50;1.50;;;;;14.09;29.68;102329.72;5063336;28;64468;-85
2022/03/20 01:43:28;;;;;;;;;3.00;2.00;;;;;14.01;29.56;102325.75;5082481;28;61856;-84
2022/03/20 01:45:54;;;;;;;;;3.00;2.00;;;;;13.96;29.43;102319.31;5082715;28;62213;-85
2022/03/20 01:48:19;;;;;;;;;3.00;3.00;;;;;13.96;29.85;102327.22;5064340;28;61778;-85
2022/03/20 01:50:45;;;;;;;;;2.75;2.00;;;;;13.95;29.72;102328.06;5063792;28;65053;-85
2022/03/20 01:53:10;;;;;;;;;1.00;1.00;;;;;13.89;29.99;102315.44;5083685;27;61926;-85
2022/03/20 01:55:36;;;;;;;;;1.75;1.75;;;;;13.86;30.20;102315.25;5085651;28;61741;-85
2022/03/20 01:58:01;;;;;;;;;5.50;2.00;;;;;13.85;29.94;102313.44;5085687;28;61647;-85
2022/03/20 02:00:28;;;;;;;;;3.00;1.00;;;;;13.80;30.10;102321.09;5067197;28;63637;-85
2022/03/20 02:02:54;;;;;;;;;4.75;2.00;;;;;13.78;30.80;102316.56;5067714;28;61956;-85
2022/03/20 02:05:21;;;;;;;;;2.25;2.00;;;;;13.73;30.60;102310.09;5084980;28;61734;-85
2022/03/20 02:07:47;;;;;;;;;2.00;2.00;;;;;13.73;30.71;102303.09;5067879;28;62161;-85
2022/03/20 02:10:14;;;;;;;;;7.00;7.00;;;;;13.73;30.56;102310.09;5066456;28;63334;-85
2022/03/20 02:12:40;;;;;;;;;1.00;1.00;;;;;13.62;30.65;102301.59;5067271;28;62122;-85
2022/03/20 02:15:12;;;;;;;;;1.50;1.00;;;;;13.60;30.61;102304.13;5085927;28;61962;-85
2022/03/20 02:17:39;;;;;;;;;4.50;1.25;;;;;13.57;30.99;102296.06;5067618;28;62131;-85
2022/03/20 02:20:08;;;;;;;;;2.00;2.00;;;;;13.59;31.00;102293.50;5083694;27;64752;-86
2022/03/20 02:22:37;;;;;;;;;1.00;1.00;;;;;13.52;31.23;102286.97;5067546;28;61758;-85
2022/03/20 02:25:08;;;;;;;;;1.75;1.75;;;;;13.48;31.34;102291.16;5067240;28;61843;-85
2022/03/20 02:27:38;;;;;;;;;2.00;2.00;;;;;13.42;31.50;102288.19;5066664;28;61737;-84
2022/03/20 02:30:12;;;;;;;;;2.00;2.00;;;;;13.41;31.56;102278.47;5066974;28;64622;-85
2022/03/20 02:32:44;;;;;;;;;2.50;2.50;;;;;13.41;31.54;102273.19;5085460;28;61941;-85
2022/03/20 02:35:13;;;;;;;;;4.75;2.00;;;;;13.41;31.79;102274.91;5067526;28;61917;-85
2022/03/20 02:37:47;;;;;;;;;5.75;2.25;;;;;13.38;32.01;102278.28;5101082;27;61767;-85
2022/03/20 02:40:14;;;;;;;;;2.00;1.25;;;;;13.40;32.10;102270.47;5066781;28;61984;-85
2022/03/20 02:42:45;;;;;;;;;4.00;1.25;;;;;13.37;32.04;102265.91;5083660;27;62018;-85
2022/03/20 02:45:30;;;;;;;;;1.00;1.00;;;;;13.30;31.85;102269.00;5085757;27;61939;-85
2022/03/20 02:47:57;;;;;;;;;2.00;2.00;;;;;13.24;32.56;102263.38;5067418;28;61903;-85
2022/03/20 02:50:32;;;;;;;;;3.75;2.00;;;;;13.20;32.23;102264.91;5066630;28;63818;-85
2022/03/20 02:53:02;;;;;;;;;4.25;2.00;;;;;13.17;32.67;102261.19;5084621;28;61835;-85
2022/03/20 02:55:37;;;;;;;;;3.00;2.00;;;;;13.15;32.80;102258.47;5066962;28;61951;-83
2022/03/20 02:58:11;;;;;;;;;2.00;2.00;;;;;13.16;33.14;102259.38;5084791;28;61875;-85
2022/03/20 03:00:39;;;;;;;;;3.50;2.25;;;;;13.24;32.48;102258.09;5084337;28;61977;-84
2022/03/20 03:03:06;;;;;;;;;3.00;2.00;;;;;13.23;32.57;102253.63;5100659;27;61975;-85
2022/03/20 03:05:33;;;;;;;;;2.00;2.00;;;;;13.16;32.79;102251.47;5065968;28;61947;-85
2022/03/20 03:10:56;;;;;;;;;3.50;3.50;;;;;13.17;32.94;102243.63;5084618;28;62432;-85
2022/03/20 03:13:26;;;;;;;;;2.00;2.00;;;;;13.15;32.87;102234.72;5066154;28;62105;-85
2022/03/20 03:15:53;;;;;;;;;2.00;2.00;;;;;13.15;33.08;102244.38;5066819;28;61915;-85
2022/03/20 03:18:20;;;;;;;;;2.00;2.00;;;;;13.09;33.05;102237.94;5085015;28;61852;-85
2022/03/20 03:20:47;;;;;;;;;5.00;2.00;;;;;13.08;33.53;102236.09;5065372;28;61741;-85
2022/03/20 03:23:13;;;;;;;;;4.75;4.00;;;;;13.09;33.18;102237.94;5084948;28;61683;-85
2022/03/20 03:25:40;;;;;;;;;5.75;5.50;;;;;13.09;33.17;102234.41;5066389;28;61913;-85
2022/03/20 03:28:07;;;;;;;;;0.00;0.00;;;;;13.10;33.18;102236.22;5082947;27;61917;-85
2022/03/20 03:30:35;;;;;;;;;2.50;2.00;;;;;13.07;33.32;102230.78;5083801;28;62901;-85
2022/03/20 03:33:00;;;;;;;;;5.00;3.75;;;;;12.97;33.25;102233.69;5084523;28;62214;-85
2022/03/20 03:38:14;;;;;;;;;7.25;5.00;;;;;12.94;33.37;102230.84;5085107;28;62120;-85
2022/03/20 03:40:42;;;;;;;;;2.00;2.00;;;;;12.89;33.63;102230.59;5083869;28;63335;-84
2022/03/20 03:43:07;;;;;;;;;3.00;3.00;;;;;12.86;34.11;102233.97;5082861;28;61870;-85
2022/03/20 03:45:34;;;;;;;;;3.00;3.00;;;;;12.88;33.64;102234.06;5066230;28;61910;-85
2022/03/20 03:48:00;;;;;;;;;4.00;3.75;;;;;12.83;33.88;102228.53;5084938;28;61712;-85
2022/03/20 03:50:26;;;;;;;;;7.00;5.00;;;;;12.80;33.85;102225.69;5065114;28;63700;-85
2022/03/20 03:52:51;;;;;;;;;8.75;4.50;;;;;12.79;34.15;102223.91;5065963;28;61747;-85
2022/03/20 03:55:18;;;;;;;;;4.75;4.00;;;;;12.78;33.76;102218.53;5066192;28;62102;-85
2022/03/20 03:57:48;;;;;;;;;5.25;5.25;;;;;12.72;33.92;102219.06;5065388;28;61842;-85
2022/03/20 04:00:16;;;;;;;;;5.00;3.00;;;;;12.69;34.47;102222.44;5065103;28;63705;-85
2022/03/20 04:02:42;;;;;;;;;3.00;3.00;;;;;12.70;34.54;102218.06;5065781;28;61898;-84
2022/03/20 04:05:08;;;;;;;;;4.50;4.50;;;;;12.68;34.25;102218.00;5083793;28;62063;-86
2022/03/20 04:07:34;;;;;;;;;4.25;3.00;;;;;12.62;34.50;102222.00;5066057;28;61860;-85
2022/03/20 04:10:02;;;;;;;;;2.50;2.50;;;;;12.55;34.79;102214.53;5083740;28;62691;-85
2022/03/20 04:12:28;;;;;;;;;4.00;2.75;;;;;12.58;34.63;102220.00;5083603;28;61799;-84
2022/03/20 04:14:57;;;;;;;;;11.50;6.00;;;;;12.57;35.08;102226.06;5065193;28;62055;-86
2022/03/20 04:17:22;;;;;;;;;3.00;3.00;;;;;12.57;34.67;102220.81;5084380;28;61726;-85
2022/03/20 04:19:48;;;;;;;;;4.50;4.50;;;;;12.53;35.00;102219.69;5064277;28;62843;-85
2022/03/20 04:22:13;;;;;;;;;5.00;4.25;;;;;12.50;34.78;102211.63;5082474;28;61741;-85
2022/03/20 04:24:39;;;;;;;;;5.00;5.00;;;;;12.43;34.87;102222.63;5083986;28;61658;-85
2022/03/20 04:27:05;;;;;;;;;6.25;6.25;;;;;12.35;35.35;102227.41;5065177;28;61879;-86
2022/03/20 04:29:31;;;;;;;;;8.00;3.00;;;;;12.33;35.10;102234.31;5082966;28;61895;-85
2022/03/20 04:31:57;;;;;;;;;8.25;5.75;;;;;12.31;35.30;102235.94;5083796;28;62098;-86
2022/03/20 04:34:26;;;;;;;;;6.75;5.75;;;;;12.30;35.75;102228.88;5083022;28;62053;-85
2022/03/20 04:36:52;;;;;;;;;5.50;3.75;;;;;12.28;35.50;102233.16;5065863;28;61803;-85
2022/03/20 04:39:18;;;;;;;;;6.00;5.75;;;;;12.25;35.55;102228.59;5064925;28;64446;-85
2022/03/20 04:41:46;;;;;;;;;8.00;5.50;;;;;12.26;35.78;102240.03;5083493;28;61987;-86
2022/03/20 04:44:12;;;;;;;;;8.00;5.50;;;;;12.25;35.84;102232.94;5083519;28;61961;-85
2022/03/20 04:46:40;;;;;;;;;6.25;5.25;;;;;12.26;35.92;102237.41;5083757;28;62033;-85
2022/03/20 05:00:12;;;;;;;;;6.75;4.25;;;;;12.22;36.15;102215.25;5019953;28;61886;-85
2022/03/20 05:02:37;;;;;;;;;6.50;6.00;;;;;12.18;36.09;102221.13;5019828;28;62018;-86
2022/03/20 05:05:03;;;;;;;;;5.25;5.25;;;;;12.18;36.35;102225.50;5020402;28;62376;-86
2022/03/20 05:07:29;;;;;;;;;7.50;7.50;;;;;12.15;36.20;102222.69;5003938;28;61799;-83
2022/03/20 05:15:22;;;;;;;;;9.50;5.25;;;;;12.12;36.75;102219.84;5020336;28;62010;-85
2022/03/20 05:17:48;;;;;;;;;3.00;1.25;;;;;12.10;36.56;102217.13;5019987;28;62158;-85
2022/03/20 05:20:14;;;;;;;;;11.00;6.75;;;;;12.09;36.73;102220.56;5019405;28;63673;-85
2022/03/20 05:22:40;;;;;;;;;7.00;6.00;;;;;12.05;36.80;102216.84;5003475;28;61850;-85
2022/03/20 05:25:09;;;;;;;;;8.00;6.25;;;;;12.05;36.86;102215.94;5020283;28;62202;-85
2022/03/20 05:27:36;;;;;;;;;8.25;3.50;;;;;12.03;36.87;102214.94;5001994;28;61930;-85
2022/03/20 05:30:05;;;;;;;;;11.00;6.25;;;;;12.02;37.29;102218.41;5019317;28;61945;-85
2022/03/20 05:32:32;;;;;;;;;9.00;7.00;;;;;12.01;36.97;102214.84;5019030;28;61984;-85
2022/03/20 05:34:58;;;;;;;;;6.25;6.25;;;;;11.99;37.48;102215.56;5053298;28;61760;-86
2022/03/20 05:37:23;;;;;;;;;7.25;5.25;;;;;11.97;37.09;102211.91;5083232;28;61701;-85
2022/03/20 05:39:49;;;;;;;;;6.75;5.75;;;;;11.96;37.14;102215.38;5082154;28;62827;-85
2022/03/20 05:42:14;;;;;;;;;5.25;5.25;;;;;11.97;37.08;102214.56;5082234;28;61912;-85
2022/03/20 05:44:40;;;;;;;;;7.25;6.25;;;;;11.96;37.34;102212.75;5082469;28;62670;-85
2022/03/20 05:47:06;;;;;;;;;10.25;5.25;;;;;11.94;37.39;102215.28;5064147;28;61808;-85
2022/03/20 05:49:32;;;;;;;;;4.75;2.50;;;;;11.93;37.44;102217.81;5063633;28;63385;-85
2022/03/20 05:51:59;;;;;;;;;10.25;7.25;;;;;11.92;37.50;102213.38;5064143;28;62266;-85
2022/03/20 05:54:24;;;;;;;;;4.50;4.50;;;;;11.91;36.95;102204.56;5064431;28;62118;-85
2022/03/20 05:59:37;;;;;;;;;7.00;6.00;;;;;11.85;37.18;102209.44;5081536;28;61934;-85
2022/03/20 06:02:04;;;;;;;;;8.50;7.25;;;;;11.82;37.28;102211.84;5081931;28;61830;-85
2022/03/20 06:04:31;;;;;;;;;8.75;5.75;;;;;11.78;37.57;102218.66;5081086;27;61918;-85
2022/03/20 06:06:58;;;;;;;;;6.00;5.00;;;;;11.78;37.63;102217.72;5064581;28;61703;-85
2022/03/20 06:09:23;;;;;;;;;6.00;5.75;;;;;11.77;37.20;102216.81;5081978;28;62034;-85
2022/03/20 06:11:49;;;;;;;;;6.00;6.00;;;;;11.75;37.75;102210.56;5063981;28;61963;-85
2022/03/20 06:14:17;;;;;;;;;6.00;6.00;;;;;11.77;37.65;102214.19;5082033;28;61848;-85
2022/03/20 06:16:45;;;;;;;;;7.75;7.00;;;;;11.82;37.60;102218.00;5063911;28;61942;-85
2022/03/20 06:19:11;;;;;;;;;10.00;6.00;;;;;11.84;37.38;102220.75;5063647;28;63708;-85
2022/03/20 06:21:38;;;;;;;;;9.00;7.25;;;;;11.84;37.54;102228.63;5063580;28;62682;-85
2022/03/20 06:24:03;;;;;;;;;5.25;3.50;;;;;11.84;37.62;102229.53;5064090;28;62242;-85
2022/03/20 06:26:29;;;;;;;;;9.50;8.50;;;;;11.85;37.69;102230.47;5081906;28;62188;-85
2022/03/20 06:28:55;;;;;;;;;7.00;7.00;;;;;11.84;37.59;102229.53;5081348;28;62635;-85
2022/03/20 06:31:20;;;;;;;;;10.75;8.00;;;;;11.84;37.24;102232.16;5063503;28;61864;-85
2022/03/20 06:33:47;;;;;;;;;6.00;6.00;;;;;11.87;37.38;102236.75;5063789;28;61842;-85
2022/03/20 06:36:14;;;;;;;;;10.25;7.00;;;;;11.86;37.12;102232.28;5082054;28;61814;-85
2022/03/20 06:38:41;;;;;;;;;11.75;7.25;;;;;11.91;37.57;102236.16;5081540;28;62176;-85
2022/03/20 06:41:08;;;;;;;;;3.50;3.50;;;;;11.93;37.11;102236.22;5085375;28;61943;-85
2022/03/20 06:43:35;;;;;;;;;9.00;6.25;;;;;11.95;37.47;102239.88;5066932;28;62222;-85
2022/03/20 06:46:02;;;;;;;;;14.75;7.50;;;;;11.97;37.44;102240.88;5085387;28;61715;-85
2022/03/20 06:48:28;;;;;;;;;8.75;5.00;;;;;11.96;37.39;102249.59;5083422;27;64724;-86
2022/03/20 06:50:54;;;;;;;;;7.00;7.00;;;;;12.00;36.98;102254.22;5067036;28;61963;-85
2022/03/20 06:53:19;;;;;;;;;12.00;8.25;;;;;12.03;36.98;102254.41;5085342;28;62068;-85
2022/03/20 06:55:45;;;;;;;;;5.50;5.50;;;;;12.11;36.97;102253.16;5085174;28;61937;-85
2022/03/20 06:58:13;;;;;;;;;10.75;8.75;;;;;12.20;36.83;102251.09;5064896;28;65181;-85
2022/03/20 07:00:40;;;;;;;;;13.25;9.00;;;;;12.60;36.30;102253.50;5085165;28;62071;-85
2022/03/20 07:03:07;;;;;;;;;11.00;7.50;;;;;13.00;35.31;102250.56;5066861;28;62017;-85
2022/03/20 07:05:33;;;;;;;;;8.00;8.00;;;;;13.44;34.77;102243.44;5085105;28;62184;-84
2022/03/20 07:08:00;;;;;;;;;12.25;10.50;;;;;13.83;34.86;102246.47;5066137;28;63296;-85
2022/03/20 07:10:26;;;;;;;;;14.00;8.75;;;;;14.05;34.54;102246.81;5084949;28;61892;-81
2022/03/20 07:13:48;;;;;;;;;11.00;8.75;;;;;14.16;34.35;102243.81;5065699;28;61881;-88
2022/03/20 07:15:43;;;;;;;;;11.75;11.00;;;;;14.24;33.99;102247.78;5084396;28;61832;-90
2022/03/20 07:18:16;;;;;;;;;7.75;4.25;;;;;14.21;34.03;102245.88;5083490;28;63111;-80
2022/03/20 07:20:45;;;;;;;;;14.25;11.00;;;;;14.53;33.46;102244.03;5084140;28;62030;-80
2022/03/20 07:23:11;;;;;;;;;13.50;12.25;;;;;15.59;32.07;102251.94;5084248;28;61742;-80
2022/03/20 07:31:10;;;;;;;;;15.75;12.25;;;;;16.39;30.85;102245.03;5083215;28;61984;-80
2022/03/20 07:33:36;;;;;;;;;15.25;12.75;;;;;16.62;30.62;102246.00;5067180;28;61992;-79
2022/03/20 07:36:04;;;;;;;;;21.25;14.75;;;;;16.71;30.75;102245.50;5084432;28;61684;-80
2022/03/20 07:38:30;;;;;;;;;17.75;14.50;;;;;16.77;30.75;102253.72;5081845;28;63436;-81
2022/03/20 07:40:55;;;;;;;;;14.00;13.25;;;;;16.88;30.03;102255.13;5083602;28;61962;-81
2022/03/20 07:43:21;;;;;;;;;17.75;12.25;;;;;17.00;30.44;102245.88;5083364;28;61885;-81
2022/03/20 07:45:47;;;;;;;;;12.00;12.00;;;;;16.91;30.46;102249.06;5083914;28;62862;-80
2022/03/20 07:48:13;;;;;;;;;13.25;10.50;;;;;16.77;30.86;102252.00;5080371;28;61953;-81
2022/03/20 07:50:40;;;;;;;;;13.25;12.25;;;;;16.60;30.77;102254.75;5082850;28;61843;-80
2022/03/20 07:53:06;;;;;;;;;19.50;14.75;;;;;16.45;30.82;102253.25;5080021;28;62152;-80
2022/03/20 07:55:34;;;;;;;;;16.00;15.00;;;;;16.30;31.16;102247.25;5083593;28;61799;-80
2022/03/20 07:58:00;;;;;;;;;14.00;13.00;;;;;16.03;31.35;102261.09;5064043;28;64907;-80
2022/03/20 08:00:26;;;;;;;;;18.00;14.00;;;;;15.84;31.85;102250.47;5065624;28;62071;-79
2022/03/20 08:02:52;;;;;;;;;16.75;14.00;;;;;15.77;32.00;102253.66;5084150;28;61843;-83
2022/03/20 08:05:18;;;;;;;;;18.50;14.75;;;;;15.73;32.08;102257.91;5066248;28;62071;-82
2022/03/20 08:07:44;;;;;;;;;26.25;17.75;;;;;15.70;32.30;102258.66;5083383;28;63251;-85
2022/03/20 08:10:11;;;;;;;;;21.25;18.25;;;;;15.69;32.26;102251.53;5082556;28;61914;-79
2022/03/20 08:12:37;;;;;;;;;21.75;17.75;;;;;15.63;32.37;102253.00;5083333;28;61844;-78
2022/03/20 08:15:04;;;;;;;;;18.25;16.75;;;;;15.59;32.37;102251.94;5083141;28;61916;-79
2022/03/20 08:17:30;;;;;;;;;20.75;17.75;;;;;15.58;32.56;102249.22;5083423;28;63357;-81
2022/03/20 08:19:56;;;;;;;;;24.75;17.50;;;;;15.58;32.90;102255.41;5084096;28;61885;-80
2022/03/20 08:22:22;;;;;;;;;20.25;13.25;;;;;15.58;33.25;102252.78;5083711;28;61774;-81
2022/03/20 08:24:48;;;;;;;;;26.25;19.75;;;;;15.45;32.64;102248.63;5082713;28;61860;-82
2022/03/20 08:27:14;;;;;;;;;24.25;18.50;;;;;15.38;32.99;102249.19;5080826;28;64390;-79
2022/03/20 08:29:40;;;;;;;;;24.75;22.00;;;;;15.32;32.99;102247.13;5081927;28;61992;-85
2022/03/20 08:32:07;;;;;;;;;20.00;18.00;;;;;15.33;32.97;102250.69;5082582;28;61888;-79
2022/03/20 08:34:32;;;;;;;;;18.25;17.50;;;;;15.22;33.11;102255.44;5083129;28;61895;-77
2022/03/20 08:36:58;;;;;;;;;24.25;18.00;;;;;15.27;33.43;102253.03;5063524;28;63579;-82
2022/03/20 08:39:23;;;;;;;;;25.25;21.75;;;;;15.31;33.48;102253.25;5081399;28;61709;-79
2022/03/20 08:41:50;;;;;;;;;25.25;22.00;;;;;15.33;33.49;102254.22;5065024;28;61982;-85
2022/03/20 08:44:15;;;;;;;;;26.00;19.75;;;;;15.38;33.06;102249.19;5080745;28;61988;-83
2022/03/20 08:46:41;;;;;;;;;25.75;18.75;;;;;15.39;33.39;102258.91;5061802;28;64680;-84
2022/03/20 08:49:07;;;;;;;;;21.50;18.75;;;;;15.38;33.19;102259.78;5079585;28;61868;-84
2022/03/20 08:51:34;;;;;;;;;23.25;19.50;;;;;15.36;33.36;102258.78;5060898;28;61787;-85
2022/03/20 08:54:03;;;;;;;;;21.00;19.75;;;;;15.29;33.22;102254.91;5062668;28;62016;-85
2022/03/20 08:56:33;;;;;;;;;22.50;20.00;;;;;15.32;33.63;102259.47;5061236;28;62822;-88
2022/03/20 08:58:59;;;;;;;;;33.00;23.75;;;;;15.30;33.54;102264.69;5063115;28;61931;-86
2022/03/20 09:01:25;;;;;;;;;31.25;22.25;;;;;15.38;33.95;102264.13;5079666;28;61874;-85
2022/03/20 09:03:50;;;;;;;;;28.50;24.75;;;;;15.44;33.44;102259.13;5081135;28;61994;-84
2022/03/20 09:06:20;;;;;;;;;33.50;25.00;;;;;15.44;33.36;102267.97;5082426;28;63200;-85
2022/03/20 09:08:46;;;;;;;;;28.25;22.25;;;;;15.47;33.44;102262.84;5082873;28;61946;-83
2022/03/20 09:11:12;;;;;;;;;28.00;23.00;;;;;15.45;33.28;102266.25;5064964;28;61897;-83
2022/03/20 09:13:38;;;;;;;;;25.00;20.50;;;;;15.43;33.24;102271.47;5060482;28;62165;-80
2022/03/20 09:18:59;;;;;;;;;28.25;22.50;;;;;15.43;33.62;102263.53;5060961;28;61982;-76
2022/03/20 09:21:29;;;;;;;;;23.75;19.50;;;;;15.43;33.65;102271.47;5060509;28;62033;-75
2022/03/20 09:23:55;;;;;;;;;25.25;23.00;;;;;15.47;33.41;102272.53;5060092;28;62093;-75
2022/03/20 09:26:21;;;;;;;;;34.25;23.75;;;;;15.51;33.90;102272.75;5059218;28;62098;-77
2022/03/20 09:28:47;;;;;;;;;33.50;22.50;;;;;15.58;34.93;102268.66;5059549;28;62127;-77
2022/03/20 09:31:15;;;;;;;;;25.50;22.50;;;;;15.63;34.69;102274.16;5060939;28;61761;-84
2022/03/20 09:33:41;;;;;;;;;26.75;21.75;;;;;15.66;34.33;102271.66;5058801;28;62238;-81
2022/03/20 09:36:06;;;;;;;;;30.75;26.00;;;;;15.74;35.39;102273.88;5058162;28;62090;-83
2022/03/20 09:38:33;;;;;;;;;32.50;23.25;;;;;15.81;33.47;102271.50;5054515;28;62193;-78
2022/03/20 09:41:03;;;;;;;;;37.50;29.25;;;;;15.85;35.56;102258.50;5058255;28;61869;-80
2022/03/20 09:43:30;;;;;;;;;30.50;21.00;;;;;15.95;38.14;102268.66;5040864;28;62058;-79
2022/03/20 09:45:55;;;;;;;;;19.50;16.50;;;;;16.00;35.74;102271.50;5058234;28;62069;-80
2022/03/20 09:48:21;;;;;;;;;23.50;23.50;;;;;16.04;34.99;102269.94;5060628;28;62144;-80
2022/03/20 09:50:49;;;;;;;;;25.50;22.00;;;;;16.02;34.12;102269.84;5060189;28;61804;-78
2022/03/20 09:53:14;;;;;;;;;24.75;22.50;;;;;15.92;33.36;102260.59;5067573;28;61910;-80
2022/03/20 09:55:40;;;;;;;;;35.75;28.75;;;;;15.95;34.08;102265.13;5058982;28;62748;-80
2022/03/20 09:58:05;;;;;;;;;26.00;22.25;;;;;15.98;32.76;102267.94;5058390;28;61939;-80
2022/03/20 10:00:32;;;;;;;;;27.25;23.25;;;;;16.05;34.84;102275.31;5059730;28;62380;-80
2022/03/20 10:02:57;;;;;;;;;28.75;26.00;;;;;16.13;33.55;102270.34;5040050;28;62169;-80
2022/03/20 10:05:26;;;;;;;;;27.75;17.75;;;;;16.24;35.07;102266.44;5059054;28;62004;-80
2022/03/20 10:07:51;;;;;;;;;25.00;21.50;;;;;16.28;33.45;102268.41;5059280;28;61955;-81
2022/03/20 10:10:18;;;;;;;;;23.00;20.50;;;;;16.34;35.14;102268.66;5041232;28;61889;-80
2022/03/20 10:12:47;;;;;;;;;29.75;22.75;;;;;16.35;33.73;102266.94;5041019;28;61798;-80
2022/03/20 10:15:45;;;;;;;;;28.00;23.00;;;;;16.38;33.90;102268.81;5061879;28;63800;-80
2022/03/20 10:18:15;;;;;;;;;33.25;25.75;;;;;16.48;32.82;102263.09;5022301;28;62196;-80
2022/03/20 10:20:44;;;;;;;;;26.75;24.25;;;;;16.52;32.59;102265.03;5038944;28;62322;-80
2022/03/20 10:23:39;;;;;;;;;26.00;26.00;;;;;16.60;33.20;102260.94;5023697;28;63115;-73
2022/03/20 10:26:08;;;;;;;;;30.50;24.50;;;;;16.62;32.31;102263.66;5049039;28;64496;-83
2022/03/20 10:28:40;;;;;;;;;24.50;21.50;;;;;16.64;31.15;102259.34;5039814;28;62357;-82
2022/03/20 10:31:09;;;;;;;;;34.25;25.00;;;;;16.60;31.07;102258.28;5027666;28;62274;-82
2022/03/20 10:33:40;;;;;;;;;34.25;24.25;;;;;16.70;31.27;102256.97;5023636;28;62289;-83
2022/03/20 10:36:16;;;;;;;;;39.25;22.00;;;;;16.76;31.09;102255.47;5023710;28;62742;-83
2022/03/20 10:38:49;;;;;;;;;27.00;22.50;;;;;16.84;31.34;102250.53;5039422;28;62116;-78
2022/03/20 10:41:28;;;;;;;;;31.50;27.75;;;;;16.96;30.61;102247.47;5040361;28;62315;-79
2022/03/20 10:43:57;;;;;;;;;27.25;19.00;;;;;17.05;32.18;102247.88;5040314;28;61841;-79
2022/03/20 10:46:24;;;;;;;;;21.75;19.25;;;;;17.10;31.32;102248.06;5037757;28;62900;-80
2022/03/20 10:48:54;;;;;;;;;28.00;26.00;;;;;17.16;30.58;102256.28;5041375;28;62008;-78
2022/03/20 10:51:37;;;;;;;;;27.00;20.00;;;;;17.33;32.81;102259.59;5024402;28;61908;-78
2022/03/20 10:54:05;;;;;;;;;25.50;23.50;;;;;17.48;30.43;102261.97;5066230;27;62267;-79
2022/03/20 10:56:31;;;;;;;;;18.50;15.00;;;;;17.52;28.83;102250.63;5064201;28;63939;-80
2022/03/20 10:58:57;;;;;;;;;18.75;16.75;;;;;17.57;28.52;102247.31;5065982;28;62089;-80
2022/03/20 11:01:39;;;;;;;;;24.25;18.50;;;;;17.70;28.58;102243.38;5084783;27;62094;-79
2022/03/20 11:04:07;;;;;;;;;23.75;20.00;;;;;17.85;27.85;102240.44;5065402;28;62301;-80
2022/03/20 11:06:32;;;;;;;;;18.00;17.50;;;;;17.97;27.30;102234.69;5082653;27;63315;-80
2022/03/20 11:08:57;;;;;;;;;18.25;15.00;;;;;18.11;27.30;102243.19;5082524;28;62128;-79
2022/03/20 11:11:25;;;;;;;;;21.75;19.75;;;;;18.18;25.87;102226.59;5065918;28;61828;-78
2022/03/20 11:13:53;;;;;;;;;20.25;15.50;;;;;18.22;26.62;102227.63;5082596;27;61990;-78
2022/03/20 11:16:24;;;;;;;;;19.75;19.50;;;;;18.36;26.49;102240.56;5083039;28;61792;-78
2022/03/20 11:18:52;;;;;;;;;20.75;19.00;;;;;18.39;26.53;102239.75;5081088;28;61886;-80
2022/03/20 11:21:22;;;;;;;;;19.00;12.50;;;;;18.55;25.75;102231.47;5082066;28;62101;-80
2022/03/20 11:23:49;;;;;;;;;28.25;21.75;;;;;18.64;25.74;102232.63;5081667;27;62015;-80
2022/03/20 11:26:16;;;;;;;;;24.75;18.75;;;;;18.90;26.16;102229.16;5076612;28;62995;-81
2022/03/20 11:28:45;;;;;;;;;23.00;19.25;;;;;19.08;25.22;102228.84;5062022;28;63012;-81
2022/03/20 11:31:11;;;;;;;;;23.75;18.25;;;;;19.26;26.31;102233.88;5065413;28;62051;-80
2022/03/20 11:33:38;;;;;;;;;22.25;16.25;;;;;19.38;25.87;102234.25;5080365;28;62087;-80
2022/03/20 11:36:04;;;;;;;;;19.75;17.50;;;;;19.53;24.82;102227.59;5071574;28;64206;-84
2022/03/20 11:38:31;;;;;;;;;26.00;22.50;;;;;19.67;26.00;102226.25;5083442;28;62215;-83
2022/03/20 11:41:17;;;;;;;;;22.50;19.50;;;;;19.85;24.90;102225.03;5083667;28;61957;-80
2022/03/20 11:44:21;;;;;;;;;25.00;18.50;;;;;19.94;25.56;102231.50;5064830;28;61959;-81
2022/03/20 11:47:29;;;;;;;;;22.50;15.50;;;;;20.16;25.04;102217.06;5082471;28;64787;-82
2022/03/20 11:50:17;;;;;;;;;20.00;18.50;;;;;20.06;23.72;102216.75;5065239;28;61764;-80
2022/03/20 11:52:46;;;;;;;;;23.75;19.50;;;;;20.11;24.43;102223.09;5084130;28;62165;-79
2022/03/20 11:55:38;;;;;;;;;19.75;17.00;;;;;20.28;23.75;102218.25;5084178;28;61876;-81